首页
METAR-TAF:

METAR-TAF

机场 :

伏尔加格勒, 俄罗斯

纬度: 48-47N, 经度: 044-22E, 海拔: 145米

当前天气观测

该预报发布于37分钟前的14:30 UTC
风速16节,风向西转西南
温度 12°C
湿度 88%
气压 1010 hPa
能见度10公里或以上
散云层高于800英尺
多云层高于3700英尺

METAR: URWW 231430Z 24008MPS 9999 SCT008 BKN037 12/10 Q1010 R24/010070 TEMPO BKN004 BKN020CB RMK OBST OBSC

时间: 18:07 (15:07 UTC)

预报

该预报发布于1小时和8分钟前的13:59 UTC
预报有效从23日的 15点(UTC)到 23日的 24点(UTC)
风速16节,风向西南,有时为25节阵风
能見度: 5000
多云层高于1100英尺
多云层高于2000英尺, 积雨云.
轻雾
短暂存在
从 23日的 15点(UTC)到 23日的 21点(UTC)
风速16节,风向西,有时为29节阵风
能見度: 3100
多云层高于400英尺
多云层高于2000英尺, 积雨云.
小阵雨
短暂存在
从 23日的 21点(UTC)到 23日的 24点(UTC)
风速12节,风向西,有时为23节阵风
能見度: 3100
轻雾

TAF: URWW 231359Z 2315/2324 23008G13MPS 5000 BR BKN011 BKN020CB TEMPO 2315/2321 26008G15MPS 3100 -SHRA BKN004 BKN020CB TEMPO 2321/2324 26006G12MPS 3100 BR

超过4000个机场的气象观测和天气预报(METAR&TAF报告)。

可查询的气象台以黄色和红色小点在地图上表示。

将鼠标移到小点上方,可查看气象台名称。

然后点击查看天气观测和预报。

如需切换地图:点击带黑十字的绿色按钮放大地图;点击带横线的绿色按钮缩小地图;或者点击绿色箭头查看邻近地区的地图。


METAR-TAF: